MHLCMHRO

Guest
Details From MHLC - Goloson Intl
To MHRO - Roatan
Flight Number -
Tags generated
Created
Modified
Stats Distance 39 nm / 73 km
Max Altitude 0 ft / 0 m
Waypoints 3
Social Downloads 0
Likes 0
Share VATSIM

Download

Looking for another format? Having issues loading an existing format? Contact us
Advertisement - Login to hide

Notes

Basic altitude profile: - Ascent Rate: 2500ft/min - Ascent Speed: 250kts - Cruise Altitude: 100ft - Cruise Speed: 200kts - Descent Rate: 1500ft/min - Descent Speed: 250kts Options: - Use NATs: yes - Use PACOTS: yes - Use low airways: yes - Use high airways: yes

Route

MHLC ROA MHRO

ID Type Via Altitude Latitude Longitude Leg Dist Tot Dist Heading (true) Name
O MHLC APT - 0 ft / 0 m 15.74248˚ -86.85304˚ - 0 nm - Goloson Intl
ROA VOR - 0 ft / 0 m 16.31655˚ -86.52178˚ 39 nm 39 nm 29° / 29° ROATAN VOR-DME
O MHRO APT - 0 ft / 0 m 16.31682˚ -86.52296˚ 0 nm 39 nm 283° / 283° Roatan

Altitude Profile

Advertisement - Login to hide

MHLC

Details ICAO MHLC (LCE)
Name Goloson Intl
Region Honduras
Timezone America/Tegucigalpa (UTC-6.0)
Stats Elevation 49 ft / 15 m (AMSL)
Location 15.742480° -86.853036°
Runways 1
Magnetic Variation 1.130° W

METAR

MHLC 151200Z 00000KT 9999 BKN026 19/18 Q1014 A2995 NOSIG

Decode

TAF

Not found

Departure Runways

ID Width Length Bearing (true) Bearing (mag) Surface Threshold Offset Overrun Length
07 147 ft / 45 m 9,867 ft / 3,008 m 66.97° 68.10° Asphalt 813 ft / 248 m 0 ft / 0 m
25 147 ft / 45 m 9,867 ft / 3,008 m 246.98° 248.11° Asphalt 200 ft / 61 m 804 ft / 245 m

MHRO

Details ICAO MHRO (RTB)
Name Roatan
Region Honduras
Timezone Unknown (UTC+0.0)
Stats Elevation 18 ft / 5 m (AMSL)
Location 16.316816° -86.522961°
Runways 1
Magnetic Variation 1.410° W

METAR

MHRO 151200Z 09010KT 9999 FEW020 25/22 Q1014 A2995 NOSIG

Decode

TAF

Not found

Destination Runways

ID Width Length Bearing (true) Bearing (mag) Surface Threshold Offset Overrun Length
07 148 ft / 45 m 7,353 ft / 2,241 m 65.06° 66.47° Asphalt 200 ft / 61 m 0 ft / 0 m
25 148 ft / 45 m 7,353 ft / 2,241 m 245.06° 246.47° Asphalt 0 ft / 0 m 0 ft / 0 m

Popular Alternatives